sensor_id;sensor_type;location;lat;lon;timestamp;temperature;humidity
758;DHT22;363;48.764;9.172;2022-08-16T00:01:31;19.80;96.90
758;DHT22;363;48.764;9.172;2022-08-16T00:03:56;19.80;96.90
758;DHT22;363;48.764;9.172;2022-08-16T00:06:24;19.80;96.80
758;DHT22;363;48.764;9.172;2022-08-16T00:08:50;19.80;96.80
758;DHT22;363;48.764;9.172;2022-08-16T00:11:16;19.90;96.80
758;DHT22;363;48.764;9.172;2022-08-16T00:13:46;19.90;96.70
758;DHT22;363;48.764;9.172;2022-08-16T00:16:12;20.20;96.80
758;DHT22;363;48.764;9.172;2022-08-16T00:18:38;19.90;96.90
758;DHT22;363;48.764;9.172;2022-08-16T00:21:03;19.90;97.00
758;DHT22;363;48.764;9.172;2022-08-16T00:23:29;19.90;97.00
758;DHT22;363;48.764;9.172;2022-08-16T00:25:55;19.80;97.20
758;DHT22;363;48.764;9.172;2022-08-16T00:28:21;19.70;97.30
758;DHT22;363;48.764;9.172;2022-08-16T00:30:48;19.70;97.40
758;DHT22;363;48.764;9.172;2022-08-16T00:33:14;19.60;97.60
758;DHT22;363;48.764;9.172;2022-08-16T00:35:39;19.60;97.70
758;DHT22;363;48.764;9.172;2022-08-16T00:38:06;19.50;97.90
758;DHT22;363;48.764;9.172;2022-08-16T00:40:38;19.90;98.00
758;DHT22;363;48.764;9.172;2022-08-16T00:43:08;19.50;98.10
758;DHT22;363;48.764;9.172;2022-08-16T00:48:09;19.40;98.20
758;DHT22;363;48.764;9.172;2022-08-16T00:50:37;19.40;98.50
758;DHT22;363;48.764;9.172;2022-08-16T00:53:05;19.30;98.60
758;DHT22;363;48.764;9.172;2022-08-16T00:55:31;19.20;98.90
758;DHT22;363;48.764;9.172;2022-08-16T00:57:58;19.10;99.00
758;DHT22;363;48.764;9.172;2022-08-16T01:00:24;19.10;99.10
758;DHT22;363;48.764;9.172;2022-08-16T01:02:58;19.10;99.30
758;DHT22;363;48.764;9.172;2022-08-16T01:05:25;19.10;99.50
758;DHT22;363;48.764;9.172;2022-08-16T01:07:52;19.10;99.60
758;DHT22;363;48.764;9.172;2022-08-16T01:10:21;18.80;99.50
758;DHT22;363;48.764;9.172;2022-08-16T01:12:47;18.80;99.60
758;DHT22;363;48.764;9.172;2022-08-16T01:15:13;19.00;99.90
758;DHT22;363;48.764;9.172;2022-08-16T01:17:42;19.00;99.90
758;DHT22;363;48.764;9.172;2022-08-16T01:20:11;18.90;99.90
758;DHT22;363;48.764;9.172;2022-08-16T01:25:13;18.90;99.90
758;DHT22;363;48.764;9.172;2022-08-16T01:27:48;18.90;99.90
758;DHT22;363;48.764;9.172;2022-08-16T01:30:18;19.00;99.90
758;DHT22;363;48.764;9.172;2022-08-16T01:32:45;19.00;99.90
758;DHT22;363;48.764;9.172;2022-08-16T01:35:22;19.00;99.90
758;DHT22;363;48.764;9.172;2022-08-16T01:37:52;19.00;99.90
758;DHT22;363;48.764;9.172;2022-08-16T01:40:21;19.00;99.90
758;DHT22;363;48.764;9.172;2022-08-16T01:42:48;19.00;99.90
758;DHT22;363;48.764;9.172;2022-08-16T01:45:16;18.90;99.90
758;DHT22;363;48.764;9.172;2022-08-16T01:47:44;19.10;99.90
758;DHT22;363;48.764;9.172;2022-08-16T01:50:10;19.00;99.90
758;DHT22;363;48.764;9.172;2022-08-16T01:52:37;19.00;99.90
758;DHT22;363;48.764;9.172;2022-08-16T01:55:04;19.00;99.90
758;DHT22;363;48.764;9.172;2022-08-16T01:57:31;19.20;99.90
758;DHT22;363;48.764;9.172;2022-08-16T01:59:57;19.30;99.90
758;DHT22;363;48.764;9.172;2022-08-16T02:02:23;19.10;99.90
758;DHT22;363;48.764;9.172;2022-08-16T02:04:50;19.20;99.90
758;DHT22;363;48.764;9.172;2022-08-16T02:07:16;19.20;99.90
758;DHT22;363;48.764;9.172;2022-08-16T02:09:45;19.20;99.90
758;DHT22;363;48.764;9.172;2022-08-16T02:12:11;19.30;99.90
758;DHT22;363;48.764;9.172;2022-08-16T02:14:38;19.30;99.90
758;DHT22;363;48.764;9.172;2022-08-16T02:17:07;19.40;99.90
758;DHT22;363;48.764;9.172;2022-08-16T02:19:35;19.40;99.90
758;DHT22;363;48.764;9.172;2022-08-16T02:22:04;19.30;99.90
758;DHT22;363;48.764;9.172;2022-08-16T02:24:31;19.30;99.90
758;DHT22;363;48.764;9.172;2022-08-16T02:26:57;19.40;99.90
758;DHT22;363;48.764;9.172;2022-08-16T02:29:22;19.40;99.90
758;DHT22;363;48.764;9.172;2022-08-16T02:31:50;19.40;99.90
758;DHT22;363;48.764;9.172;2022-08-16T02:34:17;19.40;99.90
758;DHT22;363;48.764;9.172;2022-08-16T02:36:43;19.40;99.90
758;DHT22;363;48.764;9.172;2022-08-16T02:39:11;19.70;99.90
758;DHT22;363;48.764;9.172;2022-08-16T02:41:39;19.40;99.90
758;DHT22;363;48.764;9.172;2022-08-16T02:44:06;19.40;99.90
758;DHT22;363;48.764;9.172;2022-08-16T02:46:32;19.40;99.90
758;DHT22;363;48.764;9.172;2022-08-16T02:49:02;19.40;99.90
758;DHT22;363;48.764;9.172;2022-08-16T02:51:28;19.60;99.90
758;DHT22;363;48.764;9.172;2022-08-16T02:53:54;19.70;99.90
758;DHT22;363;48.764;9.172;2022-08-16T02:56:20;19.70;99.90
758;DHT22;363;48.764;9.172;2022-08-16T02:58:48;19.70;99.90
758;DHT22;363;48.764;9.172;2022-08-16T03:01:19;19.70;99.90
758;DHT22;363;48.764;9.172;2022-08-16T03:03:47;19.70;99.90
758;DHT22;363;48.764;9.172;2022-08-16T03:06:13;19.60;99.90
758;DHT22;363;48.764;9.172;2022-08-16T03:08:41;19.50;99.90
758;DHT22;363;48.764;9.172;2022-08-16T03:11:07;19.60;99.90
758;DHT22;363;48.764;9.172;2022-08-16T03:13:33;19.70;99.90
758;DHT22;363;48.764;9.172;2022-08-16T03:15:59;19.70;99.90
758;DHT22;363;48.764;9.172;2022-08-16T03:18:24;19.60;99.90
758;DHT22;363;48.764;9.172;2022-08-16T03:20:50;19.70;99.90
758;DHT22;363;48.764;9.172;2022-08-16T03:23:16;19.70;99.90
758;DHT22;363;48.764;9.172;2022-08-16T03:25:41;19.70;99.90
758;DHT22;363;48.764;9.172;2022-08-16T03:28:07;19.70;99.90
758;DHT22;363;48.764;9.172;2022-08-16T03:30:34;19.70;99.90
758;DHT22;363;48.764;9.172;2022-08-16T03:33:00;19.60;99.90
758;DHT22;363;48.764;9.172;2022-08-16T03:35:30;19.50;99.90
758;DHT22;363;48.764;9.172;2022-08-16T03:37:59;19.70;99.90
758;DHT22;363;48.764;9.172;2022-08-16T03:40:26;19.40;99.90
758;DHT22;363;48.764;9.172;2022-08-16T03:42:52;19.40;99.90
758;DHT22;363;48.764;9.172;2022-08-16T03:45:19;19.40;99.90
758;DHT22;363;48.764;9.172;2022-08-16T03:47:46;19.30;99.90
758;DHT22;363;48.764;9.172;2022-08-16T03:50:12;19.30;99.90
758;DHT22;363;48.764;9.172;2022-08-16T03:52:39;19.30;99.90
758;DHT22;363;48.764;9.172;2022-08-16T03:55:05;19.30;99.90
758;DHT22;363;48.764;9.172;2022-08-16T03:57:31;19.30;99.90
758;DHT22;363;48.764;9.172;2022-08-16T03:59:57;19.20;99.90
758;DHT22;363;48.764;9.172;2022-08-16T04:02:23;19.20;99.90
758;DHT22;363;48.764;9.172;2022-08-16T04:04:49;19.20;99.90
758;DHT22;363;48.764;9.172;2022-08-16T04:07:15;18.90;99.90
758;DHT22;363;48.764;9.172;2022-08-16T04:09:41;19.10;99.90
758;DHT22;363;48.764;9.172;2022-08-16T04:12:09;19.10;99.90
758;DHT22;363;48.764;9.172;2022-08-16T04:14:35;19.00;99.90
758;DHT22;363;48.764;9.172;2022-08-16T04:17:02;19.00;99.90
758;DHT22;363;48.764;9.172;2022-08-16T04:19:28;19.00;99.90
758;DHT22;363;48.764;9.172;2022-08-16T04:21:54;19.00;99.90
758;DHT22;363;48.764;9.172;2022-08-16T04:24:20;19.00;99.90
758;DHT22;363;48.764;9.172;2022-08-16T04:26:46;18.90;99.90
758;DHT22;363;48.764;9.172;2022-08-16T04:29:14;19.00;99.90
758;DHT22;363;48.764;9.172;2022-08-16T04:31:40;19.00;99.90
758;DHT22;363;48.764;9.172;2022-08-16T04:34:06;19.10;99.90
758;DHT22;363;48.764;9.172;2022-08-16T04:36:31;19.10;99.90
758;DHT22;363;48.764;9.172;2022-08-16T04:38:57;19.20;99.90
758;DHT22;363;48.764;9.172;2022-08-16T04:41:23;19.20;99.90
758;DHT22;363;48.764;9.172;2022-08-16T04:43:49;19.30;99.90
758;DHT22;363;48.764;9.172;2022-08-16T04:46:15;19.30;99.90
758;DHT22;363;48.764;9.172;2022-08-16T04:48:42;19.40;99.90
758;DHT22;363;48.764;9.172;2022-08-16T04:51:09;19.40;99.90
758;DHT22;363;48.764;9.172;2022-08-16T04:53:35;19.40;99.90
758;DHT22;363;48.764;9.172;2022-08-16T04:56:01;19.50;99.90
758;DHT22;363;48.764;9.172;2022-08-16T04:58:27;19.70;99.90
758;DHT22;363;48.764;9.172;2022-08-16T05:00:55;19.80;99.90
758;DHT22;363;48.764;9.172;2022-08-16T05:03:22;19.90;99.90
758;DHT22;363;48.764;9.172;2022-08-16T05:05:49;20.10;99.90
758;DHT22;363;48.764;9.172;2022-08-16T05:08:14;20.20;99.90
758;DHT22;363;48.764;9.172;2022-08-16T05:10:40;20.20;99.90
758;DHT22;363;48.764;9.172;2022-08-16T05:13:06;20.20;99.90
758;DHT22;363;48.764;9.172;2022-08-16T05:15:33;20.30;99.90
758;DHT22;363;48.764;9.172;2022-08-16T05:17:59;20.20;99.90
758;DHT22;363;48.764;9.172;2022-08-16T05:20:25;20.10;99.90
758;DHT22;363;48.764;9.172;2022-08-16T05:22:51;20.10;99.90
758;DHT22;363;48.764;9.172;2022-08-16T05:25:17;20.10;99.90
758;DHT22;363;48.764;9.172;2022-08-16T05:27:44;20.10;99.90
758;DHT22;363;48.764;9.172;2022-08-16T05:30:11;20.30;99.90
758;DHT22;363;48.764;9.172;2022-08-16T05:32:40;20.20;99.90
758;DHT22;363;48.764;9.172;2022-08-16T05:35:09;20.30;99.90
758;DHT22;363;48.764;9.172;2022-08-16T05:37:36;20.10;99.90
758;DHT22;363;48.764;9.172;2022-08-16T05:40:04;20.50;99.90
758;DHT22;363;48.764;9.172;2022-08-16T05:42:30;20.70;99.90
758;DHT22;363;48.764;9.172;2022-08-16T05:44:55;20.70;99.90
758;DHT22;363;48.764;9.172;2022-08-16T05:47:21;20.70;99.90
758;DHT22;363;48.764;9.172;2022-08-16T05:49:47;20.90;99.80
758;DHT22;363;48.764;9.172;2022-08-16T05:52:12;20.90;99.60
758;DHT22;363;48.764;9.172;2022-08-16T05:54:39;21.00;99.40
758;DHT22;363;48.764;9.172;2022-08-16T05:57:05;21.10;99.30
758;DHT22;363;48.764;9.172;2022-08-16T05:59:31;21.20;99.00
758;DHT22;363;48.764;9.172;2022-08-16T06:01:57;21.20;99.00
758;DHT22;363;48.764;9.172;2022-08-16T06:04:23;21.20;98.90
758;DHT22;363;48.764;9.172;2022-08-16T06:06:49;21.20;99.00
758;DHT22;363;48.764;9.172;2022-08-16T06:09:16;21.30;98.80
758;DHT22;363;48.764;9.172;2022-08-16T06:11:43;21.30;98.70
758;DHT22;363;48.764;9.172;2022-08-16T06:14:09;21.30;98.70
758;DHT22;363;48.764;9.172;2022-08-16T06:16:35;21.40;98.60
758;DHT22;363;48.764;9.172;2022-08-16T06:19:01;21.50;98.30
758;DHT22;363;48.764;9.172;2022-08-16T06:21:27;21.50;98.10
758;DHT22;363;48.764;9.172;2022-08-16T06:23:53;21.60;98.00
758;DHT22;363;48.764;9.172;2022-08-16T06:26:18;21.60;97.90
758;DHT22;363;48.764;9.172;2022-08-16T06:28:44;21.60;97.90
758;DHT22;363;48.764;9.172;2022-08-16T06:31:12;21.60;97.80
758;DHT22;363;48.764;9.172;2022-08-16T06:33:38;21.60;98.00
758;DHT22;363;48.764;9.172;2022-08-16T06:36:04;21.70;97.70
758;DHT22;363;48.764;9.172;2022-08-16T06:38:31;21.80;97.50
758;DHT22;363;48.764;9.172;2022-08-16T06:40:56;21.90;97.30
758;DHT22;363;48.764;9.172;2022-08-16T06:43:22;22.00;97.30
758;DHT22;363;48.764;9.172;2022-08-16T06:45:48;22.20;96.90
758;DHT22;363;48.764;9.172;2022-08-16T06:48:13;22.40;96.50
758;DHT22;363;48.764;9.172;2022-08-16T06:50:39;22.50;96.20
758;DHT22;363;48.764;9.172;2022-08-16T06:53:05;22.50;96.20
758;DHT22;363;48.764;9.172;2022-08-16T06:55:31;22.60;96.10
758;DHT22;363;48.764;9.172;2022-08-16T06:57:59;22.70;96.20
758;DHT22;363;48.764;9.172;2022-08-16T07:00:26;22.70;95.90
758;DHT22;363;48.764;9.172;2022-08-16T07:02:52;22.80;95.60
758;DHT22;363;48.764;9.172;2022-08-16T07:05:18;23.00;95.30
758;DHT22;363;48.764;9.172;2022-08-16T07:07:46;23.30;95.00
758;DHT22;363;48.764;9.172;2022-08-16T07:10:13;23.60;94.50
758;DHT22;363;48.764;9.172;2022-08-16T07:12:39;23.90;93.70
758;DHT22;363;48.764;9.172;2022-08-16T07:15:05;24.40;92.80
758;DHT22;363;48.764;9.172;2022-08-16T07:17:31;25.60;91.00
758;DHT22;363;48.764;9.172;2022-08-16T07:19:58;27.30;85.80
758;DHT22;363;48.764;9.172;2022-08-16T07:22:24;28.80;78.10
758;DHT22;363;48.764;9.172;2022-08-16T07:24:50;29.40;71.50
758;DHT22;363;48.764;9.172;2022-08-16T07:27:16;31.20;67.60
758;DHT22;363;48.764;9.172;2022-08-16T07:29:42;33.50;60.00
758;DHT22;363;48.764;9.172;2022-08-16T07:32:08;34.40;55.90
758;DHT22;363;48.764;9.172;2022-08-16T07:34:34;34.30;53.20
758;DHT22;363;48.764;9.172;2022-08-16T07:37:06;35.40;51.90
758;DHT22;363;48.764;9.172;2022-08-16T07:39:33;35.90;50.10
758;DHT22;363;48.764;9.172;2022-08-16T07:41:59;35.80;49.10
758;DHT22;363;48.764;9.172;2022-08-16T07:44:24;36.00;48.50
758;DHT22;363;48.764;9.172;2022-08-16T07:46:50;37.30;46.10
758;DHT22;363;48.764;9.172;2022-08-16T07:49:16;37.20;44.90
758;DHT22;363;48.764;9.172;2022-08-16T07:51:41;37.00;45.60
758;DHT22;363;48.764;9.172;2022-08-16T07:54:09;37.80;43.70
758;DHT22;363;48.764;9.172;2022-08-16T07:56:35;37.30;43.40
758;DHT22;363;48.764;9.172;2022-08-16T07:59:00;36.70;43.70
758;DHT22;363;48.764;9.172;2022-08-16T08:01:27;38.30;42.10
758;DHT22;363;48.764;9.172;2022-08-16T08:03:55;37.90;41.70
758;DHT22;363;48.764;9.172;2022-08-16T08:06:22;37.00;43.10
758;DHT22;363;48.764;9.172;2022-08-16T08:08:48;37.60;41.70
758;DHT22;363;48.764;9.172;2022-08-16T08:11:14;38.30;40.20
758;DHT22;363;48.764;9.172;2022-08-16T08:13:40;37.20;41.00
758;DHT22;363;48.764;9.172;2022-08-16T08:16:06;37.50;40.20
758;DHT22;363;48.764;9.172;2022-08-16T08:18:31;37.30;40.50
758;DHT22;363;48.764;9.172;2022-08-16T08:20:57;36.20;41.20
758;DHT22;363;48.764;9.172;2022-08-16T08:23:23;35.30;43.00
758;DHT22;363;48.764;9.172;2022-08-16T08:25:50;34.30;45.00
758;DHT22;363;48.764;9.172;2022-08-16T08:28:16;33.10;48.60
758;DHT22;363;48.764;9.172;2022-08-16T08:30:42;31.60;51.80
758;DHT22;363;48.764;9.172;2022-08-16T08:33:08;31.20;51.60
758;DHT22;363;48.764;9.172;2022-08-16T08:35:34;30.70;52.70
758;DHT22;363;48.764;9.172;2022-08-16T08:38:01;30.50;54.20
758;DHT22;363;48.764;9.172;2022-08-16T08:40:28;30.60;55.40
758;DHT22;363;48.764;9.172;2022-08-16T08:42:58;30.10;56.50
758;DHT22;363;48.764;9.172;2022-08-16T08:45:24;30.00;56.90
758;DHT22;363;48.764;9.172;2022-08-16T08:47:50;29.70;57.00
758;DHT22;363;48.764;9.172;2022-08-16T08:50:16;29.50;57.60
758;DHT22;363;48.764;9.172;2022-08-16T08:52:43;29.40;58.80
758;DHT22;363;48.764;9.172;2022-08-16T08:55:11;28.70;60.00
758;DHT22;363;48.764;9.172;2022-08-16T08:57:39;28.50;61.50
758;DHT22;363;48.764;9.172;2022-08-16T09:00:06;28.10;60.70
758;DHT22;363;48.764;9.172;2022-08-16T09:02:32;27.70;62.20
758;DHT22;363;48.764;9.172;2022-08-16T09:04:58;27.30;65.30
758;DHT22;363;48.764;9.172;2022-08-16T09:07:23;28.00;65.20
758;DHT22;363;48.764;9.172;2022-08-16T09:09:49;29.70;59.60
758;DHT22;363;48.764;9.172;2022-08-16T09:12:15;31.50;56.20
758;DHT22;363;48.764;9.172;2022-08-16T09:14:43;32.10;53.60
758;DHT22;363;48.764;9.172;2022-08-16T09:17:10;32.00;52.90
758;DHT22;363;48.764;9.172;2022-08-16T09:19:36;31.70;53.80
758;DHT22;363;48.764;9.172;2022-08-16T09:22:03;31.10;54.90
758;DHT22;363;48.764;9.172;2022-08-16T09:24:31;30.30;56.10
758;DHT22;363;48.764;9.172;2022-08-16T09:26:56;29.40;57.60
758;DHT22;363;48.764;9.172;2022-08-16T09:29:22;28.60;59.50
758;DHT22;363;48.764;9.172;2022-08-16T09:31:47;29.30;59.20
758;DHT22;363;48.764;9.172;2022-08-16T09:34:13;30.40;57.20
758;DHT22;363;48.764;9.172;2022-08-16T09:36:39;31.10;55.30
758;DHT22;363;48.764;9.172;2022-08-16T09:39:05;31.20;54.70
758;DHT22;363;48.764;9.172;2022-08-16T09:41:32;30.80;54.80
758;DHT22;363;48.764;9.172;2022-08-16T09:43:58;30.80;55.40
758;DHT22;363;48.764;9.172;2022-08-16T09:46:24;30.60;55.30
758;DHT22;363;48.764;9.172;2022-08-16T09:48:50;30.50;55.20
758;DHT22;363;48.764;9.172;2022-08-16T09:51:17;30.40;56.00
758;DHT22;363;48.764;9.172;2022-08-16T09:53:44;30.30;56.10
758;DHT22;363;48.764;9.172;2022-08-16T09:56:30;30.10;56.30
758;DHT22;363;48.764;9.172;2022-08-16T09:58:58;29.70;57.20
758;DHT22;363;48.764;9.172;2022-08-16T10:01:24;29.20;58.00
758;DHT22;363;48.764;9.172;2022-08-16T10:03:51;28.70;58.90
758;DHT22;363;48.764;9.172;2022-08-16T10:06:18;28.30;58.50
758;DHT22;363;48.764;9.172;2022-08-16T10:08:47;28.50;60.00
758;DHT22;363;48.764;9.172;2022-08-16T10:11:13;27.90;62.30
758;DHT22;363;48.764;9.172;2022-08-16T10:13:58;27.70;62.90
758;DHT22;363;48.764;9.172;2022-08-16T10:16:24;27.00;62.80
758;DHT22;363;48.764;9.172;2022-08-16T10:18:50;27.20;65.70
758;DHT22;363;48.764;9.172;2022-08-16T10:21:16;27.10;65.60
758;DHT22;363;48.764;9.172;2022-08-16T10:23:43;27.10;65.20
758;DHT22;363;48.764;9.172;2022-08-16T10:26:09;27.10;65.00
758;DHT22;363;48.764;9.172;2022-08-16T10:28:35;26.90;65.50
758;DHT22;363;48.764;9.172;2022-08-16T10:31:02;26.90;65.50
758;DHT22;363;48.764;9.172;2022-08-16T10:33:28;27.00;66.10
758;DHT22;363;48.764;9.172;2022-08-16T10:35:55;26.90;65.90
758;DHT22;363;48.764;9.172;2022-08-16T10:38:20;27.00;67.00
758;DHT22;363;48.764;9.172;2022-08-16T10:40:46;27.30;65.80
758;DHT22;363;48.764;9.172;2022-08-16T10:43:13;27.50;65.60
758;DHT22;363;48.764;9.172;2022-08-16T10:45:39;27.50;65.00
758;DHT22;363;48.764;9.172;2022-08-16T10:48:07;27.60;64.70
758;DHT22;363;48.764;9.172;2022-08-16T10:50:35;27.60;65.30
758;DHT22;363;48.764;9.172;2022-08-16T10:53:01;27.70;64.80
758;DHT22;363;48.764;9.172;2022-08-16T10:55:32;27.80;65.30
758;DHT22;363;48.764;9.172;2022-08-16T10:57:58;27.80;63.70
758;DHT22;363;48.764;9.172;2022-08-16T11:00:27;27.60;62.80
758;DHT22;363;48.764;9.172;2022-08-16T11:02:53;27.50;63.40
758;DHT22;363;48.764;9.172;2022-08-16T11:05:18;27.60;63.20
758;DHT22;363;48.764;9.172;2022-08-16T11:07:48;27.80;64.50
758;DHT22;363;48.764;9.172;2022-08-16T11:10:17;28.20;63.30
758;DHT22;363;48.764;9.172;2022-08-16T11:12:43;28.40;61.30
758;DHT22;363;48.764;9.172;2022-08-16T11:15:09;28.20;61.20
758;DHT22;363;48.764;9.172;2022-08-16T11:17:35;28.20;62.90
758;DHT22;363;48.764;9.172;2022-08-16T11:20:05;28.10;61.60
758;DHT22;363;48.764;9.172;2022-08-16T11:22:31;28.10;61.90
758;DHT22;363;48.764;9.172;2022-08-16T11:24:57;28.10;61.50
758;DHT22;363;48.764;9.172;2022-08-16T11:27:23;28.20;61.10
758;DHT22;363;48.764;9.172;2022-08-16T11:29:51;28.50;60.10
758;DHT22;363;48.764;9.172;2022-08-16T11:32:18;28.80;58.70
758;DHT22;363;48.764;9.172;2022-08-16T11:34:44;29.10;57.30
758;DHT22;363;48.764;9.172;2022-08-16T11:37:09;29.30;57.70
758;DHT22;363;48.764;9.172;2022-08-16T11:39:35;29.40;57.50
758;DHT22;363;48.764;9.172;2022-08-16T11:42:01;29.40;57.00
758;DHT22;363;48.764;9.172;2022-08-16T11:44:27;29.20;57.00
758;DHT22;363;48.764;9.172;2022-08-16T11:46:52;29.20;57.90
758;DHT22;363;48.764;9.172;2022-08-16T11:49:18;28.90;58.40
758;DHT22;363;48.764;9.172;2022-08-16T11:51:44;28.40;59.60
758;DHT22;363;48.764;9.172;2022-08-16T11:54:13;28.20;59.70
758;DHT22;363;48.764;9.172;2022-08-16T11:56:39;28.00;59.80
758;DHT22;363;48.764;9.172;2022-08-16T11:59:05;28.40;60.60
758;DHT22;363;48.764;9.172;2022-08-16T12:01:31;28.60;59.10
758;DHT22;363;48.764;9.172;2022-08-16T12:03:57;28.50;59.70
758;DHT22;363;48.764;9.172;2022-08-16T12:06:23;28.40;60.00
758;DHT22;363;48.764;9.172;2022-08-16T12:08:49;28.10;60.40
758;DHT22;363;48.764;9.172;2022-08-16T12:11:16;28.00;61.50
758;DHT22;363;48.764;9.172;2022-08-16T12:13:42;28.30;61.40
758;DHT22;363;48.764;9.172;2022-08-16T12:16:08;27.80;60.10
758;DHT22;363;48.764;9.172;2022-08-16T12:18:34;27.90;59.60
758;DHT22;363;48.764;9.172;2022-08-16T12:21:01;28.20;58.80
758;DHT22;363;48.764;9.172;2022-08-16T12:23:27;28.30;58.60
758;DHT22;363;48.764;9.172;2022-08-16T12:25:53;28.40;57.70
758;DHT22;363;48.764;9.172;2022-08-16T12:28:18;28.60;57.40
758;DHT22;363;48.764;9.172;2022-08-16T12:30:45;28.70;56.80
758;DHT22;363;48.764;9.172;2022-08-16T12:33:13;28.80;57.20
758;DHT22;363;48.764;9.172;2022-08-16T12:35:41;28.70;56.90
758;DHT22;363;48.764;9.172;2022-08-16T12:38:08;28.80;56.60
758;DHT22;363;48.764;9.172;2022-08-16T12:40:36;28.90;57.20
758;DHT22;363;48.764;9.172;2022-08-16T12:43:04;29.00;56.60
758;DHT22;363;48.764;9.172;2022-08-16T12:45:34;29.20;55.80
758;DHT22;363;48.764;9.172;2022-08-16T12:47:59;29.20;55.40
758;DHT22;363;48.764;9.172;2022-08-16T12:50:44;29.20;55.60
758;DHT22;363;48.764;9.172;2022-08-16T12:53:10;29.10;55.00
758;DHT22;363;48.764;9.172;2022-08-16T12:55:37;29.10;55.50
758;DHT22;363;48.764;9.172;2022-08-16T12:58:03;29.00;56.50
758;DHT22;363;48.764;9.172;2022-08-16T13:00:31;29.00;55.50
758;DHT22;363;48.764;9.172;2022-08-16T13:02:58;29.10;56.20
758;DHT22;363;48.764;9.172;2022-08-16T13:05:26;29.10;56.10
758;DHT22;363;48.764;9.172;2022-08-16T13:07:52;28.80;55.20
758;DHT22;363;48.764;9.172;2022-08-16T13:10:22;28.20;55.60
758;DHT22;363;48.764;9.172;2022-08-16T13:12:50;28.60;56.00
758;DHT22;363;48.764;9.172;2022-08-16T13:15:22;28.70;55.80
758;DHT22;363;48.764;9.172;2022-08-16T13:17:48;28.70;55.80
758;DHT22;363;48.764;9.172;2022-08-16T13:20:17;28.40;55.50
758;DHT22;363;48.764;9.172;2022-08-16T13:22:49;28.40;56.20
758;DHT22;363;48.764;9.172;2022-08-16T13:25:21;28.50;56.10
758;DHT22;363;48.764;9.172;2022-08-16T13:27:48;28.30;55.80
758;DHT22;363;48.764;9.172;2022-08-16T13:30:15;28.20;56.40
758;DHT22;363;48.764;9.172;2022-08-16T13:32:41;28.30;56.60
758;DHT22;363;48.764;9.172;2022-08-16T13:35:07;28.40;56.30
758;DHT22;363;48.764;9.172;2022-08-16T13:37:33;28.40;55.50
758;DHT22;363;48.764;9.172;2022-08-16T13:39:59;28.40;55.20
758;DHT22;363;48.764;9.172;2022-08-16T13:42:25;28.30;55.50
758;DHT22;363;48.764;9.172;2022-08-16T13:44:51;28.30;55.40
758;DHT22;363;48.764;9.172;2022-08-16T13:47:18;28.30;55.10
758;DHT22;363;48.764;9.172;2022-08-16T13:49:44;28.30;55.70
758;DHT22;363;48.764;9.172;2022-08-16T13:52:11;28.30;55.50
758;DHT22;363;48.764;9.172;2022-08-16T13:54:37;28.90;55.70
758;DHT22;363;48.764;9.172;2022-08-16T13:57:03;28.40;54.80
758;DHT22;363;48.764;9.172;2022-08-16T13:59:29;28.50;54.40
758;DHT22;363;48.764;9.172;2022-08-16T14:01:56;28.70;54.60
758;DHT22;363;48.764;9.172;2022-08-16T14:04:25;28.70;53.40
758;DHT22;363;48.764;9.172;2022-08-16T14:06:50;28.80;53.60
758;DHT22;363;48.764;9.172;2022-08-16T14:09:16;28.70;53.70
758;DHT22;363;48.764;9.172;2022-08-16T14:11:42;28.70;53.70
758;DHT22;363;48.764;9.172;2022-08-16T14:14:07;28.80;53.70
758;DHT22;363;48.764;9.172;2022-08-16T14:16:33;28.80;54.00
758;DHT22;363;48.764;9.172;2022-08-16T14:18:59;28.90;53.80
758;DHT22;363;48.764;9.172;2022-08-16T14:21:24;28.90;53.60
758;DHT22;363;48.764;9.172;2022-08-16T14:23:50;29.10;53.90
758;DHT22;363;48.764;9.172;2022-08-16T14:26:16;29.10;53.90
758;DHT22;363;48.764;9.172;2022-08-16T14:28:42;29.20;54.10
758;DHT22;363;48.764;9.172;2022-08-16T14:31:08;29.20;53.20
758;DHT22;363;48.764;9.172;2022-08-16T14:33:34;29.30;53.00
758;DHT22;363;48.764;9.172;2022-08-16T14:36:00;29.40;53.10
758;DHT22;363;48.764;9.172;2022-08-16T14:38:26;29.30;52.20
758;DHT22;363;48.764;9.172;2022-08-16T14:40:52;29.20;52.60
758;DHT22;363;48.764;9.172;2022-08-16T14:43:17;29.30;52.70
758;DHT22;363;48.764;9.172;2022-08-16T14:45:43;29.30;52.20
758;DHT22;363;48.764;9.172;2022-08-16T14:48:08;29.20;52.50
758;DHT22;363;48.764;9.172;2022-08-16T14:50:35;29.20;52.50
758;DHT22;363;48.764;9.172;2022-08-16T14:53:04;29.20;52.80
758;DHT22;363;48.764;9.172;2022-08-16T14:55:32;29.30;52.80
758;DHT22;363;48.764;9.172;2022-08-16T14:57:57;29.30;52.70
758;DHT22;363;48.764;9.172;2022-08-16T15:00:25;29.40;52.90
758;DHT22;363;48.764;9.172;2022-08-16T15:02:53;29.40;53.00
758;DHT22;363;48.764;9.172;2022-08-16T15:05:21;29.40;53.20
758;DHT22;363;48.764;9.172;2022-08-16T15:07:47;29.20;54.50
758;DHT22;363;48.764;9.172;2022-08-16T15:10:14;29.20;55.10
758;DHT22;363;48.764;9.172;2022-08-16T15:12:40;29.20;54.40
758;DHT22;363;48.764;9.172;2022-08-16T15:15:10;29.20;54.30
758;DHT22;363;48.764;9.172;2022-08-16T15:17:36;29.20;54.20
758;DHT22;363;48.764;9.172;2022-08-16T15:20:04;29.30;53.50
758;DHT22;363;48.764;9.172;2022-08-16T15:22:35;29.20;54.90
758;DHT22;363;48.764;9.172;2022-08-16T15:25:05;29.00;54.70
758;DHT22;363;48.764;9.172;2022-08-16T15:27:33;29.00;54.30
758;DHT22;363;48.764;9.172;2022-08-16T15:30:08;29.00;53.90
758;DHT22;363;48.764;9.172;2022-08-16T15:32:34;28.90;54.80
758;DHT22;363;48.764;9.172;2022-08-16T15:35:00;28.80;55.60
758;DHT22;363;48.764;9.172;2022-08-16T15:37:26;28.80;54.80
758;DHT22;363;48.764;9.172;2022-08-16T15:39:51;28.70;54.60
758;DHT22;363;48.764;9.172;2022-08-16T15:42:17;28.70;55.60
758;DHT22;363;48.764;9.172;2022-08-16T15:44:44;28.60;54.90
758;DHT22;363;48.764;9.172;2022-08-16T15:47:12;28.70;54.70
758;DHT22;363;48.764;9.172;2022-08-16T15:49:40;28.60;54.10
758;DHT22;363;48.764;9.172;2022-08-16T15:52:16;28.60;53.90
758;DHT22;363;48.764;9.172;2022-08-16T15:54:43;28.50;55.10
758;DHT22;363;48.764;9.172;2022-08-16T15:57:09;28.50;54.70
758;DHT22;363;48.764;9.172;2022-08-16T15:59:34;28.40;56.00
758;DHT22;363;48.764;9.172;2022-08-16T16:02:00;28.30;55.70
758;DHT22;363;48.764;9.172;2022-08-16T16:04:26;28.30;55.90
758;DHT22;363;48.764;9.172;2022-08-16T16:06:56;28.30;56.30
758;DHT22;363;48.764;9.172;2022-08-16T16:09:22;28.30;55.10
758;DHT22;363;48.764;9.172;2022-08-16T16:11:48;28.30;54.90
758;DHT22;363;48.764;9.172;2022-08-16T16:14:14;28.30;55.80
758;DHT22;363;48.764;9.172;2022-08-16T16:16:41;28.30;56.20
758;DHT22;363;48.764;9.172;2022-08-16T16:19:08;28.30;55.00
758;DHT22;363;48.764;9.172;2022-08-16T16:21:34;28.30;54.90
758;DHT22;363;48.764;9.172;2022-08-16T16:24:00;28.30;55.10
758;DHT22;363;48.764;9.172;2022-08-16T16:26:26;28.30;54.90
758;DHT22;363;48.764;9.172;2022-08-16T16:28:53;28.40;54.80
758;DHT22;363;48.764;9.172;2022-08-16T16:31:21;28.40;54.90
758;DHT22;363;48.764;9.172;2022-08-16T16:33:49;28.50;54.90
758;DHT22;363;48.764;9.172;2022-08-16T16:36:17;28.60;55.10